Time;durP1;ratioP1;P1;durP2;ratioP2;P2;SDS_P1;SDS_P2;PMS_P1;PMS_P2;Temp;Humidity;BMP_temperature;BMP_pressure;BME280_temperature;BME280_humidity;BME280_pressure;Samples;Min_cycle;Max_cycle;Signal;HPM_P1;HPM_P2
2021/05/28 00:02:10;;;;;;;2.88;1.83;;;11.30;99.90;;;;;;5071829;28;20024;-77
2021/05/28 00:04:36;;;;;;;3.05;1.75;;;11.50;99.90;;;;;;5073046;28;20154;-77
2021/05/28 00:07:02;;;;;;;2.75;1.77;;;11.60;99.90;;;;;;5073262;28;20025;-77
2021/05/28 00:09:30;;;;;;;3.92;1.90;;;11.40;99.90;;;;;;5071806;28;20028;-78
2021/05/28 00:11:56;;;;;;;4.28;2.05;;;11.30;99.90;;;;;;5072000;28;20506;-77
2021/05/28 00:14:21;;;;;;;4.40;1.95;;;11.30;99.90;;;;;;5071621;28;20025;-77
2021/05/28 00:16:49;;;;;;;3.95;2.10;;;11.20;99.90;;;;;;5071605;28;20508;-77
2021/05/28 00:19:15;;;;;;;4.13;1.95;;;11.20;99.90;;;;;;5072903;28;20032;-77
2021/05/28 00:21:40;;;;;;;5.35;1.90;;;11.10;99.90;;;;;;5072868;28;20027;-77
2021/05/28 00:24:07;;;;;;;3.85;1.90;;;11.10;99.90;;;;;;5071856;28;20021;-78
2021/05/28 00:26:33;;;;;;;5.65;2.80;;;11.20;99.90;;;;;;5072784;28;20024;-78
2021/05/28 00:28:58;;;;;;;5.13;2.20;;;11.10;99.90;;;;;;5072819;28;20020;-77
2021/05/28 00:31:24;;;;;;;3.65;2.20;;;11.00;99.90;;;;;;5071584;28;20480;-77
2021/05/28 00:33:50;;;;;;;3.53;1.80;;;11.10;99.90;;;;;;5073728;28;20049;-77
2021/05/28 00:36:17;;;;;;;3.72;2.28;;;11.10;99.90;;;;;;5075289;28;20077;-78
2021/05/28 00:38:43;;;;;;;3.58;2.00;;;11.10;99.90;;;;;;5075226;28;20025;-77
2021/05/28 00:41:10;;;;;;;2.65;2.13;;;11.00;99.90;;;;;;5058622;28;20028;-78
2021/05/28 00:43:36;;;;;;;6.05;2.60;;;10.90;99.90;;;;;;5076404;28;20025;-78
2021/05/28 00:46:02;;;;;;;4.10;2.38;;;11.00;99.90;;;;;;5076310;28;20025;-78
2021/05/28 00:48:28;;;;;;;5.25;2.80;;;11.10;99.90;;;;;;5075082;28;20031;-78
2021/05/28 00:50:53;;;;;;;6.22;2.40;;;11.20;99.90;;;;;;5075030;28;20510;-78
2021/05/28 00:53:21;;;;;;;7.00;3.00;;;11.20;99.90;;;;;;5076223;28;20555;-77
2021/05/28 00:55:47;;;;;;;5.60;3.70;;;11.30;99.90;;;;;;5076159;28;20029;-77
2021/05/28 00:58:13;;;;;;;6.43;3.53;;;11.30;99.90;;;;;;5076196;28;20100;-77
2021/05/28 01:00:39;;;;;;;4.32;3.55;;;11.40;99.90;;;;;;5074834;28;20108;-77
2021/05/28 01:03:05;;;;;;;4.32;3.00;;;11.40;99.90;;;;;;5076076;28;20028;-78
2021/05/28 01:05:32;;;;;;;5.78;3.83;;;11.40;99.90;;;;;;5076013;28;20025;-78
2021/05/28 01:07:58;;;;;;;11.98;4.53;;;11.50;99.90;;;;;;5076001;28;20506;-77
2021/05/28 01:10:24;;;;;;;5.13;3.70;;;11.40;99.90;;;;;;5074676;28;20020;-77
2021/05/28 01:12:50;;;;;;;6.30;3.40;;;11.40;99.90;;;;;;5074597;28;20029;-77
2021/05/28 01:15:16;;;;;;;5.88;4.47;;;11.40;99.90;;;;;;5074484;28;20111;-77
2021/05/28 01:17:42;;;;;;;5.22;3.97;;;11.50;99.90;;;;;;5075829;28;20544;-77
2021/05/28 01:20:09;;;;;;;6.50;4.20;;;11.50;99.90;;;;;;5075755;28;20151;-77
2021/05/28 01:22:36;;;;;;;8.18;4.60;;;11.50;99.90;;;;;;5074568;28;20137;-78
2021/05/28 01:25:03;;;;;;;6.65;4.70;;;11.60;99.90;;;;;;5075660;28;20027;-77
2021/05/28 01:27:29;;;;;;;7.45;5.32;;;11.50;99.90;;;;;;5076140;28;20029;-77
2021/05/28 01:29:56;;;;;;;6.63;4.90;;;11.40;99.90;;;;;;5075586;28;20028;-77
2021/05/28 01:32:22;;;;;;;8.07;5.60;;;11.40;99.90;;;;;;5075549;28;20161;-77
2021/05/28 01:34:47;;;;;;;5.90;4.70;;;11.30;99.90;;;;;;5074036;28;20090;-78
2021/05/28 01:37:13;;;;;;;7.00;5.25;;;11.40;99.90;;;;;;5075987;28;20052;-78
2021/05/28 01:39:46;;;;;;;6.43;5.10;;;11.40;99.90;;;;;;5075362;28;20030;-78
2021/05/28 01:42:12;;;;;;;6.70;4.75;;;11.40;99.90;;;;;;5074084;28;20361;-77
2021/05/28 01:44:38;;;;;;;7.28;4.28;;;11.40;99.90;;;;;;5073132;28;20025;-78
2021/05/28 01:47:04;;;;;;;7.53;5.80;;;11.40;99.90;;;;;;5074914;28;20032;-78
2021/05/28 01:49:29;;;;;;;5.57;4.25;;;11.40;99.90;;;;;;5075209;28;20029;-78
2021/05/28 01:51:55;;;;;;;6.43;4.70;;;11.40;99.90;;;;;;5075203;28;20537;-77
2021/05/28 01:54:22;;;;;;;7.47;5.60;;;11.40;99.90;;;;;;5075291;28;20506;-77
2021/05/28 01:56:50;;;;;;;7.43;5.13;;;11.40;99.90;;;;;;5075031;28;20472;-77
2021/05/28 01:59:26;;;;;;;7.15;5.57;;;11.40;99.90;;;;;;5075238;28;20028;-77
2021/05/28 02:01:52;;;;;;;7.72;5.75;;;11.40;99.90;;;;;;5075488;28;20032;-78
2021/05/28 02:04:19;;;;;;;6.88;5.07;;;11.40;99.90;;;;;;5074895;28;20032;-77
2021/05/28 02:06:45;;;;;;;8.30;6.15;;;11.30;99.90;;;;;;5074846;28;20476;-78
2021/05/28 02:09:11;;;;;;;13.48;6.45;;;11.30;99.90;;;;;;5073556;28;20111;-77
2021/05/28 02:11:36;;;;;;;6.88;5.20;;;11.30;99.90;;;;;;5073507;28;20021;-77
2021/05/28 02:14:02;;;;;;;9.45;5.50;;;11.30;99.90;;;;;;5073368;28;20025;-77
2021/05/28 02:16:28;;;;;;;9.35;6.55;;;11.40;99.90;;;;;;5074911;28;20017;-77
2021/05/28 02:18:55;;;;;;;9.93;6.70;;;11.30;99.90;;;;;;5074564;28;20039;-77
2021/05/28 02:21:21;;;;;;;7.95;5.43;;;11.20;99.90;;;;;;5073265;28;20016;-78
2021/05/28 02:23:46;;;;;;;7.40;6.00;;;11.20;99.90;;;;;;5074789;28;20489;-78
2021/05/28 02:26:12;;;;;;;10.63;5.78;;;11.30;99.90;;;;;;5073208;28;20021;-77
2021/05/28 02:28:38;;;;;;;5.47;4.82;;;11.30;99.90;;;;;;5074426;28;20447;-77
2021/05/28 02:31:03;;;;;;;9.85;4.70;;;11.20;99.90;;;;;;5074376;28;20036;-77
2021/05/28 02:33:29;;;;;;;6.10;4.43;;;11.40;99.90;;;;;;5074088;28;20056;-77
2021/05/28 02:35:55;;;;;;;5.00;3.85;;;11.50;99.90;;;;;;5074741;28;20063;-77
2021/05/28 02:38:20;;;;;;;14.35;4.43;;;11.60;99.90;;;;;;5074229;28;20505;-78
2021/05/28 02:40:46;;;;;;;7.22;4.50;;;11.60;99.90;;;;;;5074213;28;20468;-77
2021/05/28 02:43:12;;;;;;;8.38;4.20;;;11.60;99.90;;;;;;5074141;28;20109;-77
2021/05/28 02:45:37;;;;;;;6.28;4.88;;;11.70;99.90;;;;;;5073994;28;20056;-77
2021/05/28 02:48:04;;;;;;;8.65;4.00;;;11.70;99.90;;;;;;5074573;28;20032;-77
2021/05/28 02:50:32;;;;;;;7.75;5.30;;;11.70;99.90;;;;;;5073976;28;20467;-77
2021/05/28 02:53:00;;;;;;;5.75;4.07;;;11.60;99.90;;;;;;5072858;28;20024;-77
2021/05/28 02:55:27;;;;;;;6.10;4.00;;;11.60;99.90;;;;;;5073071;28;20361;-77
2021/05/28 02:57:53;;;;;;;6.10;3.70;;;11.60;99.90;;;;;;5072584;28;20024;-77
2021/05/28 03:00:21;;;;;;;9.32;4.18;;;11.70;99.90;;;;;;5072562;28;20078;-78
2021/05/28 03:02:47;;;;;;;5.07;3.72;;;11.70;99.90;;;;;;5073810;28;20049;-78
2021/05/28 03:05:13;;;;;;;5.38;4.28;;;11.60;99.90;;;;;;5072506;28;20036;-78
2021/05/28 03:07:39;;;;;;;5.40;4.10;;;11.60;99.90;;;;;;5072378;28;20033;-78
2021/05/28 03:10:05;;;;;;;6.97;4.38;;;11.50;99.90;;;;;;5073928;28;20025;-78
2021/05/28 03:12:31;;;;;;;6.38;4.80;;;11.40;99.90;;;;;;5073622;28;20024;-78
2021/05/28 03:14:57;;;;;;;5.13;4.00;;;11.20;99.90;;;;;;5072267;28;20081;-78
2021/05/28 03:17:22;;;;;;;7.68;4.68;;;11.20;99.90;;;;;;5072327;28;20059;-78
2021/05/28 03:19:49;;;;;;;8.65;4.95;;;11.20;99.90;;;;;;5073574;28;20021;-78
2021/05/28 03:22:32;;;;;;;9.60;5.13;;;11.20;99.90;;;;;;5073532;28;20025;-78
2021/05/28 03:25:03;;;;;;;6.32;4.82;;;11.00;99.90;;;;;;5073548;28;20468;-78
2021/05/28 03:27:29;;;;;;;5.38;4.10;;;10.90;99.90;;;;;;5072316;28;20449;-78
2021/05/28 03:29:54;;;;;;;5.75;4.40;;;10.90;99.90;;;;;;5073504;28;20052;-78
2021/05/28 03:32:20;;;;;;;13.15;4.78;;;10.90;99.90;;;;;;5073389;28;20383;-78
2021/05/28 03:34:46;;;;;;;8.60;4.90;;;10.80;99.90;;;;;;5072123;28;20090;-78
2021/05/28 03:37:12;;;;;;;5.68;5.00;;;10.80;99.90;;;;;;5073371;28;20029;-78
2021/05/28 03:39:37;;;;;;;9.18;4.47;;;10.80;99.90;;;;;;5073322;28;20099;-78
2021/05/28 03:42:04;;;;;;;8.00;4.70;;;10.60;99.90;;;;;;5073312;28;20369;-78
2021/05/28 03:44:30;;;;;;;7.13;4.53;;;10.60;99.90;;;;;;5073161;28;20036;-78
2021/05/28 03:46:55;;;;;;;6.28;4.35;;;10.70;99.90;;;;;;5071923;28;20031;-78
2021/05/28 03:49:21;;;;;;;6.13;4.40;;;10.70;99.90;;;;;;5073763;28;20028;-78
2021/05/28 03:51:47;;;;;;;4.75;3.97;;;10.70;99.90;;;;;;5073224;28;20515;-78
2021/05/28 03:54:13;;;;;;;7.10;3.97;;;10.60;99.90;;;;;;5071807;28;20028;-78
2021/05/28 03:56:39;;;;;;;5.75;4.28;;;10.70;99.90;;;;;;5073157;28;20104;-78
2021/05/28 03:59:05;;;;;;;6.22;4.38;;;10.80;99.90;;;;;;5073396;28;20020;-78
2021/05/28 04:01:31;;;;;;;7.07;3.75;;;10.70;99.90;;;;;;5071837;28;20024;-78
2021/05/28 04:03:56;;;;;;;8.15;4.40;;;10.70;99.90;;;;;;5073339;28;20156;-78
2021/05/28 04:06:22;;;;;;;7.40;3.70;;;10.60;99.90;;;;;;5072021;28;20027;-78
2021/05/28 04:08:48;;;;;;;8.85;3.90;;;10.60;99.90;;;;;;5077119;28;20077;-78
2021/05/28 04:11:14;;;;;;;7.38;4.18;;;10.60;99.90;;;;;;5077056;28;20376;-78
2021/05/28 04:13:39;;;;;;;7.10;3.72;;;10.60;99.90;;;;;;5075756;28;20033;-78
2021/05/28 04:16:05;;;;;;;7.07;4.40;;;10.60;99.90;;;;;;5075616;28;20024;-79
2021/05/28 04:18:31;;;;;;;5.80;3.65;;;10.40;99.90;;;;;;5076921;28;20017;-78
2021/05/28 04:20:57;;;;;;;4.40;3.20;;;10.50;99.90;;;;;;5075589;28;20025;-78
2021/05/28 04:23:23;;;;;;;4.72;3.88;;;10.70;99.90;;;;;;5075562;28;20020;-78
2021/05/28 04:25:49;;;;;;;6.43;4.00;;;10.80;99.90;;;;;;5076812;28;20032;-78
2021/05/28 04:28:15;;;;;;;6.10;3.53;;;10.70;99.90;;;;;;5075525;28;20516;-78
2021/05/28 04:30:41;;;;;;;7.63;3.83;;;10.60;99.90;;;;;;5075464;28;20384;-78
2021/05/28 04:33:07;;;;;;;5.70;3.20;;;10.60;99.90;;;;;;5076929;28;20051;-78
2021/05/28 04:35:34;;;;;;;5.93;3.30;;;10.70;99.90;;;;;;5076837;28;20025;-78
2021/05/28 04:38:00;;;;;;;4.55;3.65;;;10.70;99.90;;;;;;5076574;28;20471;-78
2021/05/28 04:40:28;;;;;;;5.60;3.20;;;10.60;99.90;;;;;;5075217;28;20027;-78
2021/05/28 04:42:54;;;;;;;6.65;3.63;;;10.70;99.90;;;;;;5075212;28;20073;-78
2021/05/28 04:45:20;;;;;;;5.13;3.38;;;10.60;99.90;;;;;;5076687;28;20032;-78
2021/05/28 04:47:46;;;;;;;5.57;3.80;;;10.70;99.90;;;;;;5076260;28;20031;-78
2021/05/28 04:50:12;;;;;;;5.28;4.13;;;10.60;99.90;;;;;;5076604;28;20100;-78
2021/05/28 04:52:38;;;;;;;7.72;4.07;;;10.40;99.90;;;;;;5076273;28;20020;-78
2021/05/28 04:55:05;;;;;;;5.97;3.90;;;10.40;99.90;;;;;;5076451;28;20035;-78
2021/05/28 04:57:30;;;;;;;7.07;4.10;;;10.50;99.90;;;;;;5074846;28;20023;-78
2021/05/28 04:59:56;;;;;;;8.23;4.35;;;10.30;99.90;;;;;;5074911;28;20021;-78
2021/05/28 05:02:22;;;;;;;5.15;3.70;;;10.30;99.90;;;;;;5074803;28;20025;-78
2021/05/28 05:04:47;;;;;;;5.97;3.88;;;10.40;99.90;;;;;;5076068;28;20111;-78
2021/05/28 05:07:13;;;;;;;8.70;5.38;;;10.50;99.90;;;;;;5074782;28;20032;-78
2021/05/28 05:09:39;;;;;;;6.90;4.53;;;10.50;99.90;;;;;;5075986;28;20040;-78
2021/05/28 05:12:05;;;;;;;6.55;3.95;;;10.60;99.90;;;;;;5074672;28;20152;-78
2021/05/28 05:14:31;;;;;;;6.82;4.20;;;10.60;99.90;;;;;;5075778;28;20601;-78
2021/05/28 05:16:56;;;;;;;7.47;4.07;;;10.70;99.90;;;;;;5076161;28;20042;-78
2021/05/28 05:19:22;;;;;;;7.22;4.10;;;10.70;99.90;;;;;;5073640;28;20051;-78
2021/05/28 05:21:49;;;;;;;5.10;3.53;;;10.80;99.90;;;;;;5074562;28;20380;-78
2021/05/28 05:24:15;;;;;;;6.88;4.20;;;10.90;99.90;;;;;;5074391;28;20070;-78
2021/05/28 05:26:41;;;;;;;4.57;3.80;;;10.90;99.90;;;;;;5074370;28;20021;-78
2021/05/28 05:29:09;;;;;;;9.60;4.60;;;11.00;99.90;;;;;;5075949;28;20021;-78
2021/05/28 05:31:35;;;;;;;9.43;3.83;;;10.90;99.90;;;;;;5075587;28;20029;-78
2021/05/28 05:34:00;;;;;;;6.28;4.05;;;10.90;99.90;;;;;;5075397;28;20044;-78
2021/05/28 05:36:26;;;;;;;7.97;4.22;;;11.10;99.90;;;;;;5075513;28;20028;-78
2021/05/28 05:38:52;;;;;;;11.90;4.55;;;11.10;99.90;;;;;;5074181;28;20406;-78
2021/05/28 05:41:18;;;;;;;11.52;5.38;;;11.20;99.90;;;;;;5074091;28;20108;-78
2021/05/28 05:43:43;;;;;;;8.27;4.43;;;11.20;99.90;;;;;;5074054;28;20040;-78
2021/05/28 05:46:09;;;;;;;8.57;4.65;;;11.10;99.90;;;;;;5074213;28;20058;-78
2021/05/28 05:48:35;;;;;;;7.95;4.25;;;11.40;99.90;;;;;;5073999;28;20078;-78
2021/05/28 05:51:01;;;;;;;11.07;4.72;;;11.50;99.90;;;;;;5075196;28;20028;-78
2021/05/28 05:53:26;;;;;;;7.50;4.40;;;11.60;99.90;;;;;;5075493;28;20149;-78
2021/05/28 05:55:52;;;;;;;7.20;4.30;;;11.60;99.90;;;;;;5075022;28;20024;-78
2021/05/28 05:58:18;;;;;;;8.15;4.18;;;11.70;99.90;;;;;;5075096;28;20029;-79
2021/05/28 06:00:43;;;;;;;9.52;4.57;;;11.70;99.90;;;;;;5073739;28;20021;-78
2021/05/28 06:03:11;;;;;;;6.88;4.50;;;11.70;99.90;;;;;;5074915;28;20025;-78
2021/05/28 06:05:37;;;;;;;9.98;5.32;;;11.80;99.90;;;;;;5074853;28;20062;-78
2021/05/28 06:08:04;;;;;;;6.30;3.55;;;11.80;99.90;;;;;;5073566;28;20032;-78
2021/05/28 06:10:30;;;;;;;8.70;4.10;;;11.80;99.90;;;;;;5073495;28;20043;-78
2021/05/28 06:13:06;;;;;;;8.35;4.35;;;11.80;99.90;;;;;;5073479;28;20033;-78
2021/05/28 06:15:32;;;;;;;10.32;4.78;;;12.00;99.90;;;;;;5074720;28;20102;-78
2021/05/28 06:17:58;;;;;;;9.13;4.43;;;12.00;99.90;;;;;;5074945;28;20027;-78
2021/05/28 06:20:24;;;;;;;11.40;4.32;;;12.10;99.90;;;;;;5074899;28;20013;-79
2021/05/28 06:22:50;;;;;;;10.05;4.05;;;12.20;99.90;;;;;;5073275;28;20436;-78
2021/05/28 06:25:16;;;;;;;7.43;4.10;;;12.30;99.90;;;;;;5074526;28;20040;-78
2021/05/28 06:27:42;;;;;;;9.95;4.57;;;12.30;99.90;;;;;;5073189;28;20032;-78
2021/05/28 06:30:08;;;;;;;8.93;3.67;;;12.40;99.90;;;;;;5074390;28;20051;-78
2021/05/28 06:32:34;;;;;;;9.77;4.22;;;12.50;99.90;;;;;;5074348;28;20035;-78
2021/05/28 06:35:00;;;;;;;10.88;4.43;;;12.60;99.90;;;;;;5072824;28;20045;-78
2021/05/28 06:37:26;;;;;;;9.35;4.72;;;12.70;99.90;;;;;;5073020;28;20077;-78
2021/05/28 06:39:52;;;;;;;7.05;3.85;;;12.70;99.90;;;;;;5072947;28;20406;-78
2021/05/28 06:42:18;;;;;;;6.82;4.35;;;12.70;99.90;;;;;;5072897;28;20020;-78
2021/05/28 06:44:43;;;;;;;10.05;4.53;;;12.40;99.90;;;;;;5073141;28;20040;-78
2021/05/28 06:47:09;;;;;;;9.38;4.47;;;12.30;99.90;;;;;;5073998;28;20162;-78
2021/05/28 06:49:35;;;;;;;7.75;4.07;;;12.50;99.90;;;;;;5074293;28;20506;-78
2021/05/28 06:52:01;;;;;;;8.23;4.57;;;12.70;99.90;;;;;;5072745;28;20025;-78
2021/05/28 06:54:29;;;;;;;10.85;5.30;;;12.70;99.90;;;;;;5073863;28;20032;-78
2021/05/28 06:56:55;;;;;;;9.13;4.88;;;12.60;99.90;;;;;;5073875;28;20384;-79
2021/05/28 06:59:21;;;;;;;6.00;3.72;;;12.60;99.90;;;;;;5073833;28;20021;-79
2021/05/28 07:01:46;;;;;;;8.82;4.50;;;12.80;99.90;;;;;;5072533;28;20016;-79
2021/05/28 07:04:12;;;;;;;7.03;4.82;;;13.00;99.90;;;;;;5072533;28;20489;-79
2021/05/28 07:06:38;;;;;;;7.82;4.30;;;13.00;99.90;;;;;;5072464;28;20017;-79
2021/05/28 07:09:04;;;;;;;7.70;4.28;;;13.00;99.90;;;;;;5073731;28;20020;-79
2021/05/28 07:11:30;;;;;;;8.05;4.15;;;13.20;99.90;;;;;;5073666;28;20361;-79
2021/05/28 07:13:56;;;;;;;10.98;4.75;;;13.20;99.90;;;;;;5072356;28;20027;-79
2021/05/28 07:16:21;;;;;;;7.28;4.40;;;13.30;99.90;;;;;;5072236;28;20136;-79
2021/05/28 07:18:48;;;;;;;8.02;4.30;;;13.40;99.90;;;;;;5073791;28;20025;-79
2021/05/28 07:21:14;;;;;;;6.85;4.22;;;13.50;99.90;;;;;;5073989;28;20048;-79
2021/05/28 07:23:39;;;;;;;8.45;4.43;;;13.40;99.90;;;;;;5073748;28;20472;-79
2021/05/28 07:26:05;;;;;;;11.82;4.90;;;13.30;99.90;;;;;;5073436;28;20142;-79
2021/05/28 07:28:33;;;;;;;9.30;4.85;;;13.20;99.90;;;;;;5073671;28;20032;-79
2021/05/28 07:30:59;;;;;;;8.27;4.30;;;13.50;99.90;;;;;;5072056;28;20020;-78
2021/05/28 07:33:26;;;;;;;8.32;4.45;;;13.80;99.90;;;;;;5073391;28;20519;-78
2021/05/28 07:35:52;;;;;;;9.77;4.13;;;13.90;99.90;;;;;;5071955;28;20028;-78
2021/05/28 07:38:18;;;;;;;11.20;4.03;;;14.00;99.90;;;;;;5072034;28;20031;-78
2021/05/28 07:40:44;;;;;;;6.05;3.78;;;13.90;99.90;;;;;;5073319;28;20021;-78
2021/05/28 07:43:10;;;;;;;5.68;3.60;;;14.00;99.90;;;;;;5071553;28;20050;-77
2021/05/28 07:45:37;;;;;;;10.38;4.32;;;14.10;99.90;;;;;;5073474;28;20024;-78
2021/05/28 07:48:04;;;;;;;6.45;3.90;;;14.20;99.90;;;;;;5071954;28;20025;-78
2021/05/28 07:50:44;;;;;;;6.53;3.58;;;14.30;99.90;;;;;;5071800;28;20044;-78
2021/05/28 07:53:18;;;;;;;12.52;4.03;;;14.20;99.90;;;;;;5071910;28;20119;-79
2021/05/28 07:55:45;;;;;;;6.80;3.45;;;14.20;99.90;;;;;;5071824;28;20025;-79
2021/05/28 07:58:11;;;;;;;9.80;4.03;;;14.30;99.90;;;;;;5073127;28;20369;-79
2021/05/28 08:00:37;;;;;;;8.00;3.90;;;14.40;99.90;;;;;;5073389;28;20025;-78
2021/05/28 08:03:03;;;;;;;7.32;3.80;;;14.60;99.90;;;;;;5071790;28;20032;-79
2021/05/28 08:05:30;;;;;;;5.10;2.88;;;14.50;99.90;;;;;;5071797;28;20425;-79
2021/05/28 08:07:56;;;;;;;5.57;2.72;;;14.60;99.90;;;;;;5073041;28;20021;-79
2021/05/28 08:10:23;;;;;;;7.28;3.00;;;14.50;99.90;;;;;;5071770;28;20035;-79
2021/05/28 08:12:50;;;;;;;4.00;2.53;;;14.40;99.90;;;;;;5073288;28;20158;-78
2021/05/28 08:15:17;;;;;;;5.68;2.28;;;14.50;99.90;;;;;;5072852;28;20032;-78
2021/05/28 08:17:44;;;;;;;7.25;2.20;;;14.70;99.90;;;;;;5072930;28;20051;-79
2021/05/28 08:20:10;;;;;;;4.72;1.98;;;14.90;99.90;;;;;;5071429;28;20472;-78
2021/05/28 08:22:36;;;;;;;4.95;2.17;;;15.10;99.90;;;;;;5054994;28;20132;-78
2021/05/28 08:25:03;;;;;;;5.07;2.70;;;15.10;99.90;;;;;;5071793;28;20515;-78
2021/05/28 08:27:29;;;;;;;5.03;2.30;;;15.10;99.90;;;;;;5071556;28;20024;-78
2021/05/28 08:29:54;;;;;;;4.88;2.28;;;15.10;99.90;;;;;;5073385;28;20028;-78
2021/05/28 08:32:20;;;;;;;6.57;2.30;;;15.10;99.90;;;;;;5073069;28;20480;-78
2021/05/28 08:34:46;;;;;;;6.78;2.63;;;15.30;99.90;;;;;;5071181;28;20048;-78
2021/05/28 08:37:11;;;;;;;6.38;2.72;;;15.60;99.90;;;;;;5071471;28;20395;-78
2021/05/28 08:39:37;;;;;;;7.18;3.10;;;15.60;99.90;;;;;;5071424;28;20024;-78
2021/05/28 08:42:04;;;;;;;5.25;3.08;;;15.40;99.90;;;;;;5072676;28;20024;-78
2021/05/28 08:44:32;;;;;;;5.97;3.15;;;15.60;99.90;;;;;;5072606;28;20488;-78
2021/05/28 08:46:59;;;;;;;10.27;3.50;;;15.60;99.90;;;;;;5071316;28;20074;-78
2021/05/28 08:49:25;;;;;;;4.60;2.63;;;15.90;99.90;;;;;;5071404;28;20058;-78
2021/05/28 08:51:51;;;;;;;7.68;3.17;;;15.90;99.90;;;;;;5071393;28;20120;-77
2021/05/28 08:54:19;;;;;;;7.43;3.30;;;15.80;99.90;;;;;;5072859;28;20051;-78
2021/05/28 08:56:50;;;;;;;8.30;3.00;;;15.90;99.90;;;;;;5076205;28;20059;-79
2021/05/28 08:59:16;;;;;;;7.10;3.63;;;16.00;99.90;;;;;;5074895;28;20025;-78
2021/05/28 09:01:42;;;;;;;11.20;3.15;;;15.90;99.90;;;;;;5076369;28;20025;-79
2021/05/28 09:04:10;;;;;;;10.15;3.72;;;15.60;99.90;;;;;;5076089;28;20020;-81
2021/05/28 09:06:41;;;;;;;6.10;3.58;;;15.50;99.90;;;;;;5075995;28;20020;-78
2021/05/28 09:09:17;;;;;;;10.70;3.25;;;15.60;99.90;;;;;;5075979;28;20032;-78
2021/05/28 09:12:03;;;;;;;5.82;3.08;;;15.70;99.90;;;;;;5076022;28;20024;-78
2021/05/28 09:14:41;;;;;;;8.20;3.80;;;15.70;99.90;;;;;;5074605;28;20028;-78
2021/05/28 09:17:12;;;;;;;5.60;3.45;;;15.70;99.90;;;;;;5074605;28;20020;-78
2021/05/28 09:19:39;;;;;;;8.10;3.08;;;15.70;99.90;;;;;;5074569;28;20021;-77
2021/05/28 09:22:07;;;;;;;9.98;3.78;;;15.50;99.90;;;;;;5074490;28;20028;-77
2021/05/28 09:24:37;;;;;;;6.75;3.13;;;15.10;99.90;;;;;;5075670;28;20028;-77
2021/05/28 09:27:28;;;;;;;5.00;2.90;;;15.10;99.90;;;;;;5074506;28;20031;-77
2021/05/28 09:30:05;;;;;;;5.57;2.97;;;15.10;99.90;;;;;;5074534;28;20024;-80
2021/05/28 09:32:32;;;;;;;6.03;2.58;;;15.00;99.90;;;;;;5074116;28;20145;-78
2021/05/28 09:34:58;;;;;;;7.30;3.40;;;15.10;99.90;;;;;;5074041;28;20041;-78
2021/05/28 09:37:52;;;;;;;8.23;3.78;;;15.30;99.90;;;;;;5075486;28;20095;-78
2021/05/28 09:40:27;;;;;;;11.77;4.00;;;15.20;99.90;;;;;;5074236;28;20369;-79
2021/05/28 09:43:00;;;;;;;6.65;4.45;;;15.00;99.90;;;;;;5075393;28;20012;-79
2021/05/28 09:45:36;;;;;;;8.38;3.97;;;15.10;99.90;;;;;;5075371;28;20082;-79
2021/05/28 09:48:19;;;;;;;7.05;3.95;;;15.30;99.90;;;;;;5075532;28;20016;-79
2021/05/28 09:50:50;;;;;;;8.27;4.13;;;15.60;99.90;;;;;;5075306;28;20137;-79
2021/05/28 09:53:36;;;;;;;12.40;4.10;;;15.80;99.90;;;;;;5073948;28;20032;-80
2021/05/28 09:56:27;;;;;;;7.97;3.00;;;16.10;99.90;;;;;;5073818;28;20077;-79
2021/05/28 09:58:59;;;;;;;7.45;3.33;;;16.20;99.90;;;;;;5075335;28;20479;-80
2021/05/28 10:01:24;;;;;;;7.05;3.50;;;16.00;99.90;;;;;;5073752;28;20549;-79
2021/05/28 10:04:07;;;;;;;8.07;2.97;;;16.20;99.90;;;;;;5073690;28;20016;-79
2021/05/28 10:06:37;;;;;;;6.43;3.17;;;16.80;99.90;;;;;;5074772;28;20021;-79
2021/05/28 10:09:08;;;;;;;7.82;2.97;;;17.30;99.90;;;;;;5073510;28;20025;-79
2021/05/28 10:11:36;;;;;;;7.78;2.95;;;16.90;99.90;;;;;;5074838;28;20090;-80
2021/05/28 10:14:02;;;;;;;5.18;2.70;;;16.60;99.90;;;;;;5073486;28;20475;-79
2021/05/28 10:16:28;;;;;;;6.57;2.78;;;16.70;99.90;;;;;;5074579;28;20025;-79
2021/05/28 10:18:55;;;;;;;4.82;2.72;;;16.80;99.90;;;;;;5074609;28;20380;-79
2021/05/28 10:21:21;;;;;;;6.68;2.65;;;16.80;99.90;;;;;;5073351;28;20082;-79
2021/05/28 10:23:48;;;;;;;7.93;3.08;;;16.80;99.90;;;;;;5074777;28;20020;-79
2021/05/28 10:26:24;;;;;;;10.57;3.30;;;17.00;99.90;;;;;;5074767;28;20096;-80
2021/05/28 10:28:50;;;;;;;5.68;3.08;;;17.20;99.90;;;;;;5057869;28;20028;-80
2021/05/28 10:31:16;;;;;;;8.07;3.20;;;17.30;99.90;;;;;;5073154;28;20559;-79
2021/05/28 10:33:49;;;;;;;7.72;3.40;;;17.10;99.90;;;;;;5072922;28;20389;-79
2021/05/28 10:36:43;;;;;;;7.50;2.60;;;16.90;99.90;;;;;;5073026;28;20060;-79
2021/05/28 10:39:11;;;;;;;10.38;3.83;;;17.00;99.90;;;;;;5073017;28;20179;-79
2021/05/28 10:41:47;;;;;;;9.55;3.80;;;17.10;99.90;;;;;;5056164;28;20435;-79
2021/05/28 10:44:19;;;;;;;4.20;2.95;;;17.40;99.90;;;;;;5074497;28;20020;-79
2021/05/28 10:46:58;;;;;;;9.55;3.83;;;17.20;99.90;;;;;;5072771;28;20024;-79
2021/05/28 10:50:02;;;;;;;9.32;3.78;;;18.00;99.90;;;;;;5072973;28;20073;-79
2021/05/28 10:52:29;;;;;;;9.00;3.40;;;18.20;99.90;;;;;;5062344;28;20036;-79
2021/05/28 10:55:06;;;;;;;6.68;3.60;;;18.00;99.90;;;;;;5073878;28;20472;-79
2021/05/28 10:57:34;;;;;;;4.82;3.13;;;17.80;99.90;;;;;;5072708;28;20030;-79
2021/05/28 11:00:07;;;;;;;4.35;2.60;;;17.90;99.90;;;;;;5072494;28;20539;-79
2021/05/28 11:02:47;;;;;;;7.00;2.97;;;18.30;99.90;;;;;;5072546;28;20028;-79
2021/05/28 11:05:14;;;;;;;10.82;3.40;;;18.00;99.90;;;;;;5072535;28;20400;-83
2021/05/28 11:07:45;;;;;;;43.38;4.93;;;18.40;99.90;;;;;;5073696;28;20474;-83
2021/05/28 11:10:23;;;;;;;14.98;4.13;;;18.50;99.90;;;;;;5073692;28;20032;-78
2021/05/28 11:12:49;;;;;;;5.40;2.42;;;18.40;99.90;;;;;;5073693;28;20044;-79
2021/05/28 11:15:22;;;;;;;5.88;2.45;;;18.40;99.90;;;;;;5072300;28;20059;-79
2021/05/28 11:17:56;;;;;;;9.10;2.75;;;18.40;99.90;;;;;;5071730;28;20021;-79
2021/05/28 11:20:26;;;;;;;7.05;2.70;;;18.60;99.90;;;;;;5072547;28;20430;-78
2021/05/28 11:22:53;;;;;;;8.93;2.60;;;18.30;99.90;;;;;;5073528;28;20024;-79
2021/05/28 11:25:24;;;;;;;4.05;2.20;;;18.60;99.90;;;;;;5072251;28;20029;-79
2021/05/28 11:28:04;;;;;;;6.32;2.42;;;18.40;99.90;;;;;;5072281;28;20028;-79
2021/05/28 11:30:49;;;;;;;7.90;2.70;;;18.70;99.90;;;;;;5073444;28;20035;-79
2021/05/28 11:33:32;;;;;;;7.43;2.22;;;18.90;99.90;;;;;;5073375;28;20032;-79
2021/05/28 11:36:00;;;;;;;4.53;1.95;;;19.00;99.90;;;;;;5072378;28;20044;-79
2021/05/28 11:38:36;;;;;;;4.18;1.83;;;19.40;99.90;;;;;;5073360;28;20021;-79
2021/05/28 11:41:02;;;;;;;5.13;2.60;;;19.20;99.90;;;;;;5072097;28;20024;-79
2021/05/28 11:43:35;;;;;;;6.25;2.30;;;19.10;99.90;;;;;;5072050;28;20112;-79
2021/05/28 11:46:01;;;;;;;4.53;2.13;;;18.70;99.90;;;;;;5073525;28;20070;-79
2021/05/28 11:48:28;;;;;;;5.07;1.85;;;19.00;99.90;;;;;;5071906;28;20021;-79
2021/05/28 11:51:00;;;;;;;4.72;1.52;;;19.80;99.90;;;;;;5072000;28;20021;-79
2021/05/28 11:53:33;;;;;;;2.22;1.30;;;18.90;99.90;;;;;;5073258;28;20025;-79
2021/05/28 11:56:00;;;;;;;6.90;1.98;;;18.50;99.90;;;;;;5073091;28;20039;-79
2021/05/28 11:58:29;;;;;;;5.82;1.65;;;18.50;99.90;;;;;;5071859;28;20392;-79
2021/05/28 12:00:55;;;;;;;3.70;1.30;;;19.80;99.00;;;;;;5073099;28;20016;-78
2021/05/28 12:03:22;;;;;;;5.55;1.60;;;19.40;97.50;;;;;;5073005;28;20016;-79
2021/05/28 12:05:50;;;;;;;2.13;1.27;;;20.90;97.90;;;;;;5073639;28;20028;-79
2021/05/28 12:08:21;;;;;;;3.20;1.23;;;21.70;95.90;;;;;;5073049;28;20025;-79
2021/05/28 12:10:48;;;;;;;3.53;1.45;;;21.80;94.00;;;;;;5071726;28;20383;-79
2021/05/28 12:13:33;;;;;;;4.57;1.45;;;22.10;92.90;;;;;;5071778;28;20369;-79
2021/05/28 12:16:14;;;;;;;2.33;1.50;;;22.60;93.70;;;;;;5072919;28;20024;-79
2021/05/28 12:18:43;;;;;;;4.93;1.63;;;22.50;92.20;;;;;;5071668;28;20391;-79
2021/05/28 12:21:17;;;;;;;3.78;1.50;;;22.50;91.50;;;;;;5071708;28;20024;-79
2021/05/28 12:23:47;;;;;;;3.00;1.30;;;22.60;91.20;;;;;;5072940;28;20028;-79
2021/05/28 12:26:20;;;;;;;2.67;1.33;;;22.50;90.80;;;;;;5072880;28;20043;-79
2021/05/28 12:28:57;;;;;;;2.33;1.42;;;23.10;89.00;;;;;;5075328;28;20052;-80
2021/05/28 12:31:34;;;;;;;6.03;2.10;;;23.40;84.70;;;;;;5075419;28;20029;-79
2021/05/28 12:34:09;;;;;;;3.53;1.77;;;23.00;82.50;;;;;;5076432;28;20093;-79
2021/05/28 12:36:39;;;;;;;4.15;1.40;;;23.00;84.40;;;;;;5075305;28;20037;-79
2021/05/28 12:39:13;;;;;;;5.10;1.45;;;23.80;82.30;;;;;;5075310;28;20025;-79
2021/05/28 12:41:39;;;;;;;;;;;23.20;80.60;;;;;;5076962;28;20100;-79
2021/05/28 12:44:06;;;;;;;2.28;1.20;;;23.50;77.40;;;;;;5076457;28;19904;-79
2021/05/28 12:46:37;;;;;;;5.10;1.75;;;23.50;80.60;;;;;;5076324;28;20020;-79
2021/05/28 12:49:11;;;;;;;4.20;1.88;;;23.90;79.30;;;;;;5076414;28;20025;-79
2021/05/28 12:51:48;;;;;;;5.88;1.35;;;23.80;77.70;;;;;;5075066;28;20028;-79